sensor_id;sensor_type;location;lat;lon;timestamp;temperature;humidity
25628;DHT22;40915;50.826;4.356;2024-01-25T00:02:04;9.30;99.90
25628;DHT22;40915;50.826;4.356;2024-01-25T00:04:30;9.30;99.90
25628;DHT22;40915;50.826;4.356;2024-01-25T00:06:55;9.20;99.90
25628;DHT22;40915;50.826;4.356;2024-01-25T00:09:21;9.20;99.90
25628;DHT22;40915;50.826;4.356;2024-01-25T00:11:46;9.10;99.90
25628;DHT22;40915;50.826;4.356;2024-01-25T00:14:12;9.10;99.90
25628;DHT22;40915;50.826;4.356;2024-01-25T00:16:41;9.10;99.90
25628;DHT22;40915;50.826;4.356;2024-01-25T00:19:07;9.10;99.90
25628;DHT22;40915;50.826;4.356;2024-01-25T00:21:33;9.10;99.90
25628;DHT22;40915;50.826;4.356;2024-01-25T00:23:58;9.10;99.90
25628;DHT22;40915;50.826;4.356;2024-01-25T00:26:24;9.10;99.90
25628;DHT22;40915;50.826;4.356;2024-01-25T00:28:50;9.00;99.90
25628;DHT22;40915;50.826;4.356;2024-01-25T00:31:15;9.00;99.90
25628;DHT22;40915;50.826;4.356;2024-01-25T00:33:41;8.90;99.90
25628;DHT22;40915;50.826;4.356;2024-01-25T00:36:07;8.90;99.90
25628;DHT22;40915;50.826;4.356;2024-01-25T00:38:33;8.90;99.90
25628;DHT22;40915;50.826;4.356;2024-01-25T00:40:59;8.80;99.90
25628;DHT22;40915;50.826;4.356;2024-01-25T00:43:25;8.80;99.90
25628;DHT22;40915;50.826;4.356;2024-01-25T00:45:51;8.80;99.90
25628;DHT22;40915;50.826;4.356;2024-01-25T00:48:17;8.70;99.90
25628;DHT22;40915;50.826;4.356;2024-01-25T00:50:43;8.70;99.90
25628;DHT22;40915;50.826;4.356;2024-01-25T00:53:08;8.70;99.90
25628;DHT22;40915;50.826;4.356;2024-01-25T00:55:34;8.60;99.90
25628;DHT22;40915;50.826;4.356;2024-01-25T00:58:00;8.60;99.90
25628;DHT22;40915;50.826;4.356;2024-01-25T01:00:26;8.60;99.90
25628;DHT22;40915;50.826;4.356;2024-01-25T01:02:53;8.60;99.90
25628;DHT22;40915;50.826;4.356;2024-01-25T01:05:19;8.60;99.90
25628;DHT22;40915;50.826;4.356;2024-01-25T01:07:45;8.60;99.90
25628;DHT22;40915;50.826;4.356;2024-01-25T01:10:10;8.50;99.90
25628;DHT22;40915;50.826;4.356;2024-01-25T01:12:37;8.50;99.90
25628;DHT22;40915;50.826;4.356;2024-01-25T01:15:02;8.60;99.90
25628;DHT22;40915;50.826;4.356;2024-01-25T01:17:29;8.50;99.90
25628;DHT22;40915;50.826;4.356;2024-01-25T01:19:54;8.60;99.90
25628;DHT22;40915;50.826;4.356;2024-01-25T01:22:20;8.60;99.90
25628;DHT22;40915;50.826;4.356;2024-01-25T01:24:46;8.60;99.90
25628;DHT22;40915;50.826;4.356;2024-01-25T01:27:11;8.60;99.90
25628;DHT22;40915;50.826;4.356;2024-01-25T01:29:37;8.50;99.90
25628;DHT22;40915;50.826;4.356;2024-01-25T01:32:03;8.50;99.90
25628;DHT22;40915;50.826;4.356;2024-01-25T01:34:29;8.40;99.90
25628;DHT22;40915;50.826;4.356;2024-01-25T01:36:54;8.40;99.90
25628;DHT22;40915;50.826;4.356;2024-01-25T01:39:20;8.40;99.90
25628;DHT22;40915;50.826;4.356;2024-01-25T01:41:49;8.40;99.90
25628;DHT22;40915;50.826;4.356;2024-01-25T01:44:15;8.40;99.90
25628;DHT22;40915;50.826;4.356;2024-01-25T01:46:41;8.40;99.90
25628;DHT22;40915;50.826;4.356;2024-01-25T01:49:11;8.30;99.90
25628;DHT22;40915;50.826;4.356;2024-01-25T01:51:37;8.30;99.90
25628;DHT22;40915;50.826;4.356;2024-01-25T01:54:06;8.20;99.90
25628;DHT22;40915;50.826;4.356;2024-01-25T01:56:31;8.20;99.90
25628;DHT22;40915;50.826;4.356;2024-01-25T01:59:03;8.20;99.90
25628;DHT22;40915;50.826;4.356;2024-01-25T02:01:29;8.20;99.90
25628;DHT22;40915;50.826;4.356;2024-01-25T02:03:55;8.20;99.90
25628;DHT22;40915;50.826;4.356;2024-01-25T02:06:24;8.10;99.90
25628;DHT22;40915;50.826;4.356;2024-01-25T02:08:50;8.10;99.90
25628;DHT22;40915;50.826;4.356;2024-01-25T02:11:17;8.10;99.90
25628;DHT22;40915;50.826;4.356;2024-01-25T02:13:43;8.10;99.90
25628;DHT22;40915;50.826;4.356;2024-01-25T02:16:09;8.10;99.90
25628;DHT22;40915;50.826;4.356;2024-01-25T02:18:35;8.10;99.90
25628;DHT22;40915;50.826;4.356;2024-01-25T02:21:00;8.10;99.90
25628;DHT22;40915;50.826;4.356;2024-01-25T02:23:26;8.10;99.90
25628;DHT22;40915;50.826;4.356;2024-01-25T02:25:52;8.00;99.90
25628;DHT22;40915;50.826;4.356;2024-01-25T02:28:17;8.00;99.90
25628;DHT22;40915;50.826;4.356;2024-01-25T02:30:43;8.00;99.90
25628;DHT22;40915;50.826;4.356;2024-01-25T02:33:08;8.00;99.90
25628;DHT22;40915;50.826;4.356;2024-01-25T02:35:34;7.90;99.90
25628;DHT22;40915;50.826;4.356;2024-01-25T02:37:59;7.90;99.90
25628;DHT22;40915;50.826;4.356;2024-01-25T02:40:25;7.90;99.90
25628;DHT22;40915;50.826;4.356;2024-01-25T02:42:51;7.90;99.90
25628;DHT22;40915;50.826;4.356;2024-01-25T02:45:16;7.90;99.90
25628;DHT22;40915;50.826;4.356;2024-01-25T02:47:42;7.90;99.90
25628;DHT22;40915;50.826;4.356;2024-01-25T02:50:08;7.80;99.90
25628;DHT22;40915;50.826;4.356;2024-01-25T02:52:34;7.80;99.90
25628;DHT22;40915;50.826;4.356;2024-01-25T02:55:00;7.80;99.90
25628;DHT22;40915;50.826;4.356;2024-01-25T02:57:25;7.80;99.90
25628;DHT22;40915;50.826;4.356;2024-01-25T02:59:51;7.70;99.90
25628;DHT22;40915;50.826;4.356;2024-01-25T03:02:17;7.70;99.90
25628;DHT22;40915;50.826;4.356;2024-01-25T03:04:45;7.70;99.90
25628;DHT22;40915;50.826;4.356;2024-01-25T03:07:10;7.70;99.90
25628;DHT22;40915;50.826;4.356;2024-01-25T03:09:36;7.70;99.90
25628;DHT22;40915;50.826;4.356;2024-01-25T03:12:01;7.70;99.90
25628;DHT22;40915;50.826;4.356;2024-01-25T03:14:27;7.60;99.90
25628;DHT22;40915;50.826;4.356;2024-01-25T03:16:53;7.60;99.90
25628;DHT22;40915;50.826;4.356;2024-01-25T03:19:19;7.60;99.90
25628;DHT22;40915;50.826;4.356;2024-01-25T03:21:44;7.60;99.90
25628;DHT22;40915;50.826;4.356;2024-01-25T03:24:10;7.60;99.90
25628;DHT22;40915;50.826;4.356;2024-01-25T03:26:35;7.60;99.90
25628;DHT22;40915;50.826;4.356;2024-01-25T03:29:01;7.60;99.90
25628;DHT22;40915;50.826;4.356;2024-01-25T03:31:26;7.50;99.90
25628;DHT22;40915;50.826;4.356;2024-01-25T03:33:52;7.50;99.90
25628;DHT22;40915;50.826;4.356;2024-01-25T03:36:17;7.50;99.90
25628;DHT22;40915;50.826;4.356;2024-01-25T03:38:43;7.50;99.90
25628;DHT22;40915;50.826;4.356;2024-01-25T03:41:09;7.50;99.90
25628;DHT22;40915;50.826;4.356;2024-01-25T03:43:35;7.50;99.90
25628;DHT22;40915;50.826;4.356;2024-01-25T03:46:01;7.50;99.90
25628;DHT22;40915;50.826;4.356;2024-01-25T03:48:28;7.50;99.90
25628;DHT22;40915;50.826;4.356;2024-01-25T03:50:53;7.50;99.90
25628;DHT22;40915;50.826;4.356;2024-01-25T03:53:22;7.40;99.90
25628;DHT22;40915;50.826;4.356;2024-01-25T03:55:47;7.40;99.90
25628;DHT22;40915;50.826;4.356;2024-01-25T03:58:14;7.40;99.90
25628;DHT22;40915;50.826;4.356;2024-01-25T04:00:40;7.40;99.90
25628;DHT22;40915;50.826;4.356;2024-01-25T04:03:06;7.30;99.90
25628;DHT22;40915;50.826;4.356;2024-01-25T04:05:31;7.30;99.90
25628;DHT22;40915;50.826;4.356;2024-01-25T04:07:57;7.30;99.90
25628;DHT22;40915;50.826;4.356;2024-01-25T04:10:22;7.30;99.90
25628;DHT22;40915;50.826;4.356;2024-01-25T04:12:48;7.30;99.90
25628;DHT22;40915;50.826;4.356;2024-01-25T04:15:14;7.30;99.90
25628;DHT22;40915;50.826;4.356;2024-01-25T04:17:39;7.20;99.90
25628;DHT22;40915;50.826;4.356;2024-01-25T04:20:05;7.20;99.90
25628;DHT22;40915;50.826;4.356;2024-01-25T04:22:31;7.20;99.90
25628;DHT22;40915;50.826;4.356;2024-01-25T04:24:57;7.20;99.90
25628;DHT22;40915;50.826;4.356;2024-01-25T04:27:22;7.20;99.90
25628;DHT22;40915;50.826;4.356;2024-01-25T04:29:48;7.10;99.90
25628;DHT22;40915;50.826;4.356;2024-01-25T04:32:14;7.10;99.90
25628;DHT22;40915;50.826;4.356;2024-01-25T04:34:39;7.10;99.90
25628;DHT22;40915;50.826;4.356;2024-01-25T04:37:05;7.10;99.90
25628;DHT22;40915;50.826;4.356;2024-01-25T04:39:30;7.10;99.90
25628;DHT22;40915;50.826;4.356;2024-01-25T04:41:56;7.10;99.90
25628;DHT22;40915;50.826;4.356;2024-01-25T04:44:22;7.10;99.90
25628;DHT22;40915;50.826;4.356;2024-01-25T04:46:47;7.10;99.90
25628;DHT22;40915;50.826;4.356;2024-01-25T04:49:13;7.10;99.90
25628;DHT22;40915;50.826;4.356;2024-01-25T04:51:38;7.10;99.90
25628;DHT22;40915;50.826;4.356;2024-01-25T04:54:04;7.10;99.90
25628;DHT22;40915;50.826;4.356;2024-01-25T04:56:31;7.10;99.90
25628;DHT22;40915;50.826;4.356;2024-01-25T04:58:57;7.10;99.90
25628;DHT22;40915;50.826;4.356;2024-01-25T05:01:23;7.10;99.90
25628;DHT22;40915;50.826;4.356;2024-01-25T05:03:49;7.10;99.90
25628;DHT22;40915;50.826;4.356;2024-01-25T05:06:14;7.10;99.90
25628;DHT22;40915;50.826;4.356;2024-01-25T05:08:42;7.10;99.90
25628;DHT22;40915;50.826;4.356;2024-01-25T05:11:07;7.10;99.90
25628;DHT22;40915;50.826;4.356;2024-01-25T05:13:34;7.10;99.90
25628;DHT22;40915;50.826;4.356;2024-01-25T05:16:00;7.10;99.90
25628;DHT22;40915;50.826;4.356;2024-01-25T05:18:26;7.10;99.90
25628;DHT22;40915;50.826;4.356;2024-01-25T05:20:52;7.00;99.90
25628;DHT22;40915;50.826;4.356;2024-01-25T05:23:17;7.00;99.90
25628;DHT22;40915;50.826;4.356;2024-01-25T05:25:43;7.00;99.90
25628;DHT22;40915;50.826;4.356;2024-01-25T05:28:08;7.00;99.90
25628;DHT22;40915;50.826;4.356;2024-01-25T05:30:34;7.00;99.90
25628;DHT22;40915;50.826;4.356;2024-01-25T05:32:59;7.00;99.90
25628;DHT22;40915;50.826;4.356;2024-01-25T05:35:26;7.00;99.90
25628;DHT22;40915;50.826;4.356;2024-01-25T05:37:51;7.00;99.90
25628;DHT22;40915;50.826;4.356;2024-01-25T05:40:18;7.00;99.90
25628;DHT22;40915;50.826;4.356;2024-01-25T05:42:43;7.00;99.90
25628;DHT22;40915;50.826;4.356;2024-01-25T05:45:09;7.00;99.90
25628;DHT22;40915;50.826;4.356;2024-01-25T05:47:35;7.00;99.90
25628;DHT22;40915;50.826;4.356;2024-01-25T05:50:01;7.00;99.90
25628;DHT22;40915;50.826;4.356;2024-01-25T05:52:27;7.00;99.90
25628;DHT22;40915;50.826;4.356;2024-01-25T05:54:53;7.00;99.90
25628;DHT22;40915;50.826;4.356;2024-01-25T05:57:19;7.00;99.90
25628;DHT22;40915;50.826;4.356;2024-01-25T05:59:45;7.00;99.90
25628;DHT22;40915;50.826;4.356;2024-01-25T06:02:11;7.00;99.90
25628;DHT22;40915;50.826;4.356;2024-01-25T06:04:37;7.00;99.90
25628;DHT22;40915;50.826;4.356;2024-01-25T06:07:03;7.00;99.90
25628;DHT22;40915;50.826;4.356;2024-01-25T06:09:28;7.00;99.90
25628;DHT22;40915;50.826;4.356;2024-01-25T06:11:54;7.00;99.90
25628;DHT22;40915;50.826;4.356;2024-01-25T06:14:20;7.00;99.90
25628;DHT22;40915;50.826;4.356;2024-01-25T06:16:45;7.00;99.90
25628;DHT22;40915;50.826;4.356;2024-01-25T06:19:11;7.00;99.90
25628;DHT22;40915;50.826;4.356;2024-01-25T06:21:37;7.00;99.90
25628;DHT22;40915;50.826;4.356;2024-01-25T06:24:06;7.00;99.90
25628;DHT22;40915;50.826;4.356;2024-01-25T06:26:32;7.00;99.90
25628;DHT22;40915;50.826;4.356;2024-01-25T06:28:57;7.00;99.90
25628;DHT22;40915;50.826;4.356;2024-01-25T06:31:24;7.00;99.90
25628;DHT22;40915;50.826;4.356;2024-01-25T06:33:50;6.90;99.90
25628;DHT22;40915;50.826;4.356;2024-01-25T06:36:17;7.00;99.90
25628;DHT22;40915;50.826;4.356;2024-01-25T06:38:43;7.00;99.90
25628;DHT22;40915;50.826;4.356;2024-01-25T06:41:09;7.00;99.90
25628;DHT22;40915;50.826;4.356;2024-01-25T06:43:34;7.00;99.90
25628;DHT22;40915;50.826;4.356;2024-01-25T06:46:00;7.10;99.90
25628;DHT22;40915;50.826;4.356;2024-01-25T06:48:25;7.10;99.90
25628;DHT22;40915;50.826;4.356;2024-01-25T06:50:51;7.10;99.90
25628;DHT22;40915;50.826;4.356;2024-01-25T06:53:17;7.10;99.90
25628;DHT22;40915;50.826;4.356;2024-01-25T06:55:42;7.10;99.90
25628;DHT22;40915;50.826;4.356;2024-01-25T06:58:08;7.10;99.90
25628;DHT22;40915;50.826;4.356;2024-01-25T07:00:34;7.10;99.90
25628;DHT22;40915;50.826;4.356;2024-01-25T07:03:00;7.10;99.90
25628;DHT22;40915;50.826;4.356;2024-01-25T07:05:25;7.00;99.90
25628;DHT22;40915;50.826;4.356;2024-01-25T07:07:52;7.00;99.90
25628;DHT22;40915;50.826;4.356;2024-01-25T07:10:18;7.00;99.90
25628;DHT22;40915;50.826;4.356;2024-01-25T07:12:43;6.90;99.90
25628;DHT22;40915;50.826;4.356;2024-01-25T07:15:09;6.90;99.90
25628;DHT22;40915;50.826;4.356;2024-01-25T07:17:35;6.90;99.90
25628;DHT22;40915;50.826;4.356;2024-01-25T07:20:01;6.90;99.90
25628;DHT22;40915;50.826;4.356;2024-01-25T07:22:26;6.90;99.90
25628;DHT22;40915;50.826;4.356;2024-01-25T07:24:52;6.90;99.90
25628;DHT22;40915;50.826;4.356;2024-01-25T07:27:17;6.80;99.90
25628;DHT22;40915;50.826;4.356;2024-01-25T07:29:44;6.80;99.90
25628;DHT22;40915;50.826;4.356;2024-01-25T07:32:11;6.80;99.90
25628;DHT22;40915;50.826;4.356;2024-01-25T07:34:36;6.80;99.90
25628;DHT22;40915;50.826;4.356;2024-01-25T07:37:03;6.80;99.90
25628;DHT22;40915;50.826;4.356;2024-01-25T07:39:29;6.80;99.90
25628;DHT22;40915;50.826;4.356;2024-01-25T07:41:54;6.80;99.90
25628;DHT22;40915;50.826;4.356;2024-01-25T07:44:20;6.80;99.90
25628;DHT22;40915;50.826;4.356;2024-01-25T07:46:45;6.80;99.90
25628;DHT22;40915;50.826;4.356;2024-01-25T07:49:11;6.80;99.90
25628;DHT22;40915;50.826;4.356;2024-01-25T07:51:37;6.80;99.90
25628;DHT22;40915;50.826;4.356;2024-01-25T07:54:02;6.80;99.90
25628;DHT22;40915;50.826;4.356;2024-01-25T07:56:28;6.80;99.90
25628;DHT22;40915;50.826;4.356;2024-01-25T07:58:54;6.90;99.90
25628;DHT22;40915;50.826;4.356;2024-01-25T08:01:20;6.90;99.90
25628;DHT22;40915;50.826;4.356;2024-01-25T08:03:46;6.90;99.90
25628;DHT22;40915;50.826;4.356;2024-01-25T08:06:12;6.90;99.90
25628;DHT22;40915;50.826;4.356;2024-01-25T08:08:38;6.90;99.90
25628;DHT22;40915;50.826;4.356;2024-01-25T08:11:04;6.90;99.90
25628;DHT22;40915;50.826;4.356;2024-01-25T08:13:31;6.80;99.90
25628;DHT22;40915;50.826;4.356;2024-01-25T08:15:57;6.80;99.90
25628;DHT22;40915;50.826;4.356;2024-01-25T08:18:23;6.80;99.90
25628;DHT22;40915;50.826;4.356;2024-01-25T08:20:49;6.80;99.90
25628;DHT22;40915;50.826;4.356;2024-01-25T08:23:16;6.90;99.90
25628;DHT22;40915;50.826;4.356;2024-01-25T08:25:42;6.90;99.90
25628;DHT22;40915;50.826;4.356;2024-01-25T08:28:07;6.90;99.90
25628;DHT22;40915;50.826;4.356;2024-01-25T08:30:33;6.90;99.90
25628;DHT22;40915;50.826;4.356;2024-01-25T08:32:59;6.90;99.90
25628;DHT22;40915;50.826;4.356;2024-01-25T08:35:25;6.90;99.90
25628;DHT22;40915;50.826;4.356;2024-01-25T08:37:50;6.90;99.90
25628;DHT22;40915;50.826;4.356;2024-01-25T08:40:16;7.00;99.90
25628;DHT22;40915;50.826;4.356;2024-01-25T08:42:42;7.00;99.90
25628;DHT22;40915;50.826;4.356;2024-01-25T08:45:08;7.00;99.90
25628;DHT22;40915;50.826;4.356;2024-01-25T08:47:37;7.10;99.90
25628;DHT22;40915;50.826;4.356;2024-01-25T08:50:03;7.10;99.90
25628;DHT22;40915;50.826;4.356;2024-01-25T08:52:30;7.10;99.90
25628;DHT22;40915;50.826;4.356;2024-01-25T08:54:56;7.10;99.90
25628;DHT22;40915;50.826;4.356;2024-01-25T08:57:22;7.10;99.90
25628;DHT22;40915;50.826;4.356;2024-01-25T08:59:47;7.20;99.90
25628;DHT22;40915;50.826;4.356;2024-01-25T09:02:13;7.30;99.90
25628;DHT22;40915;50.826;4.356;2024-01-25T09:04:39;7.30;99.90
25628;DHT22;40915;50.826;4.356;2024-01-25T09:07:08;7.40;99.90
25628;DHT22;40915;50.826;4.356;2024-01-25T09:09:34;7.50;99.90
25628;DHT22;40915;50.826;4.356;2024-01-25T09:12:00;7.60;99.90
25628;DHT22;40915;50.826;4.356;2024-01-25T09:14:25;7.60;99.90
25628;DHT22;40915;50.826;4.356;2024-01-25T09:16:51;7.60;99.90
25628;DHT22;40915;50.826;4.356;2024-01-25T09:19:17;7.60;99.90
25628;DHT22;40915;50.826;4.356;2024-01-25T09:21:42;7.70;99.90
25628;DHT22;40915;50.826;4.356;2024-01-25T09:24:08;7.80;99.90
25628;DHT22;40915;50.826;4.356;2024-01-25T09:26:34;7.90;99.90
25628;DHT22;40915;50.826;4.356;2024-01-25T09:28:59;8.00;99.90
25628;DHT22;40915;50.826;4.356;2024-01-25T09:31:25;8.10;99.90
25628;DHT22;40915;50.826;4.356;2024-01-25T09:33:51;8.10;99.90
25628;DHT22;40915;50.826;4.356;2024-01-25T09:36:17;8.10;99.90
25628;DHT22;40915;50.826;4.356;2024-01-25T09:38:43;8.10;99.90
25628;DHT22;40915;50.826;4.356;2024-01-25T09:41:09;8.00;99.90
25628;DHT22;40915;50.826;4.356;2024-01-25T09:43:36;8.00;99.90
25628;DHT22;40915;50.826;4.356;2024-01-25T09:46:02;8.00;99.90
25628;DHT22;40915;50.826;4.356;2024-01-25T09:48:29;8.10;99.90
25628;DHT22;40915;50.826;4.356;2024-01-25T09:50:55;8.20;99.90
25628;DHT22;40915;50.826;4.356;2024-01-25T09:53:22;8.10;99.90
25628;DHT22;40915;50.826;4.356;2024-01-25T09:56:03;8.20;99.90
25628;DHT22;40915;50.826;4.356;2024-01-25T09:58:38;8.30;99.90
25628;DHT22;40915;50.826;4.356;2024-01-25T10:01:09;8.30;99.90
25628;DHT22;40915;50.826;4.356;2024-01-25T10:03:36;8.20;99.90
25628;DHT22;40915;50.826;4.356;2024-01-25T10:06:02;8.30;99.90
25628;DHT22;40915;50.826;4.356;2024-01-25T10:08:29;8.40;99.90
25628;DHT22;40915;50.826;4.356;2024-01-25T10:10:55;8.40;99.90
25628;DHT22;40915;50.826;4.356;2024-01-25T10:13:20;8.40;99.90
25628;DHT22;40915;50.826;4.356;2024-01-25T10:15:47;8.50;99.90
25628;DHT22;40915;50.826;4.356;2024-01-25T10:18:14;8.50;99.90
25628;DHT22;40915;50.826;4.356;2024-01-25T10:20:41;8.50;99.90
25628;DHT22;40915;50.826;4.356;2024-01-25T10:23:07;8.60;99.90
25628;DHT22;40915;50.826;4.356;2024-01-25T10:25:37;8.60;99.90
25628;DHT22;40915;50.826;4.356;2024-01-25T10:28:04;8.70;99.90
25628;DHT22;40915;50.826;4.356;2024-01-25T10:30:32;8.80;99.90
25628;DHT22;40915;50.826;4.356;2024-01-25T10:32:59;8.90;99.90
25628;DHT22;40915;50.826;4.356;2024-01-25T10:35:25;8.90;99.90
25628;DHT22;40915;50.826;4.356;2024-01-25T10:37:51;9.00;99.90
25628;DHT22;40915;50.826;4.356;2024-01-25T10:40:18;8.90;99.90
25628;DHT22;40915;50.826;4.356;2024-01-25T10:42:44;8.90;99.90
25628;DHT22;40915;50.826;4.356;2024-01-25T10:45:10;8.80;99.90
25628;DHT22;40915;50.826;4.356;2024-01-25T10:47:36;8.90;99.90
25628;DHT22;40915;50.826;4.356;2024-01-25T10:50:03;9.00;99.90
25628;DHT22;40915;50.826;4.356;2024-01-25T10:52:31;9.00;99.90
25628;DHT22;40915;50.826;4.356;2024-01-25T10:54:58;9.10;99.90
25628;DHT22;40915;50.826;4.356;2024-01-25T10:57:24;9.20;99.90
25628;DHT22;40915;50.826;4.356;2024-01-25T10:59:49;9.30;99.90
25628;DHT22;40915;50.826;4.356;2024-01-25T11:02:18;9.30;99.90
25628;DHT22;40915;50.826;4.356;2024-01-25T11:04:56;9.30;99.90
25628;DHT22;40915;50.826;4.356;2024-01-25T11:07:21;9.40;99.90
25628;DHT22;40915;50.826;4.356;2024-01-25T11:09:51;9.50;99.90
25628;DHT22;40915;50.826;4.356;2024-01-25T11:12:18;9.60;99.90
25628;DHT22;40915;50.826;4.356;2024-01-25T11:14:44;9.60;99.90
25628;DHT22;40915;50.826;4.356;2024-01-25T11:17:20;9.60;99.90
25628;DHT22;40915;50.826;4.356;2024-01-25T11:19:47;9.60;99.90
25628;DHT22;40915;50.826;4.356;2024-01-25T11:22:13;9.60;99.90
25628;DHT22;40915;50.826;4.356;2024-01-25T11:24:39;9.60;99.90
25628;DHT22;40915;50.826;4.356;2024-01-25T11:27:05;9.70;99.90
25628;DHT22;40915;50.826;4.356;2024-01-25T11:29:32;9.70;99.90
25628;DHT22;40915;50.826;4.356;2024-01-25T11:31:58;9.70;99.90
25628;DHT22;40915;50.826;4.356;2024-01-25T11:34:24;9.70;99.90
25628;DHT22;40915;50.826;4.356;2024-01-25T11:36:50;9.70;99.90
25628;DHT22;40915;50.826;4.356;2024-01-25T11:39:17;9.70;99.90
25628;DHT22;40915;50.826;4.356;2024-01-25T11:41:43;9.70;99.90
25628;DHT22;40915;50.826;4.356;2024-01-25T11:44:11;9.70;99.90
25628;DHT22;40915;50.826;4.356;2024-01-25T11:46:36;9.70;99.90
25628;DHT22;40915;50.826;4.356;2024-01-25T11:49:02;9.70;99.90
25628;DHT22;40915;50.826;4.356;2024-01-25T11:51:28;9.80;99.90
25628;DHT22;40915;50.826;4.356;2024-01-25T11:53:54;9.80;99.90
25628;DHT22;40915;50.826;4.356;2024-01-25T11:56:23;9.80;99.90
25628;DHT22;40915;50.826;4.356;2024-01-25T11:58:50;9.90;99.90
25628;DHT22;40915;50.826;4.356;2024-01-25T12:01:16;9.90;99.90
25628;DHT22;40915;50.826;4.356;2024-01-25T12:03:43;9.90;99.90
25628;DHT22;40915;50.826;4.356;2024-01-25T12:06:09;10.00;99.90
25628;DHT22;40915;50.826;4.356;2024-01-25T12:08:35;10.00;99.90
25628;DHT22;40915;50.826;4.356;2024-01-25T12:11:04;10.00;99.90
25628;DHT22;40915;50.826;4.356;2024-01-25T12:13:39;10.00;99.90
25628;DHT22;40915;50.826;4.356;2024-01-25T12:16:06;10.00;99.90
25628;DHT22;40915;50.826;4.356;2024-01-25T12:18:33;10.00;99.90
25628;DHT22;40915;50.826;4.356;2024-01-25T12:21:00;10.10;99.90
25628;DHT22;40915;50.826;4.356;2024-01-25T12:23:33;10.00;99.90
25628;DHT22;40915;50.826;4.356;2024-01-25T12:26:04;10.00;99.90
25628;DHT22;40915;50.826;4.356;2024-01-25T12:28:31;10.00;99.90
25628;DHT22;40915;50.826;4.356;2024-01-25T12:31:04;9.90;99.90
25628;DHT22;40915;50.826;4.356;2024-01-25T12:33:30;9.90;99.90
25628;DHT22;40915;50.826;4.356;2024-01-25T12:35:56;9.90;99.90
25628;DHT22;40915;50.826;4.356;2024-01-25T12:38:22;9.80;99.90
25628;DHT22;40915;50.826;4.356;2024-01-25T12:40:49;9.70;99.90
25628;DHT22;40915;50.826;4.356;2024-01-25T12:43:16;9.70;99.90
25628;DHT22;40915;50.826;4.356;2024-01-25T12:45:42;9.70;99.90
25628;DHT22;40915;50.826;4.356;2024-01-25T12:48:08;9.70;99.90
25628;DHT22;40915;50.826;4.356;2024-01-25T12:50:34;9.70;99.90
25628;DHT22;40915;50.826;4.356;2024-01-25T12:53:01;9.70;99.90
25628;DHT22;40915;50.826;4.356;2024-01-25T12:55:28;9.70;99.90
25628;DHT22;40915;50.826;4.356;2024-01-25T12:57:54;9.70;99.90
25628;DHT22;40915;50.826;4.356;2024-01-25T13:00:21;9.70;99.90
25628;DHT22;40915;50.826;4.356;2024-01-25T13:02:47;9.80;99.90
25628;DHT22;40915;50.826;4.356;2024-01-25T13:05:13;9.80;99.90
25628;DHT22;40915;50.826;4.356;2024-01-25T13:07:39;9.90;99.90
25628;DHT22;40915;50.826;4.356;2024-01-25T13:10:05;9.90;99.90
25628;DHT22;40915;50.826;4.356;2024-01-25T13:12:31;10.00;99.90
25628;DHT22;40915;50.826;4.356;2024-01-25T13:14:57;10.00;99.90
25628;DHT22;40915;50.826;4.356;2024-01-25T13:17:22;10.00;99.90
25628;DHT22;40915;50.826;4.356;2024-01-25T13:19:49;10.10;99.90
25628;DHT22;40915;50.826;4.356;2024-01-25T13:22:15;10.10;99.90
25628;DHT22;40915;50.826;4.356;2024-01-25T13:24:42;10.10;99.90
25628;DHT22;40915;50.826;4.356;2024-01-25T13:27:09;10.10;99.90
25628;DHT22;40915;50.826;4.356;2024-01-25T13:29:34;10.10;99.90
25628;DHT22;40915;50.826;4.356;2024-01-25T13:32:00;10.10;99.90
25628;DHT22;40915;50.826;4.356;2024-01-25T13:34:25;10.10;99.90
25628;DHT22;40915;50.826;4.356;2024-01-25T13:36:51;10.10;99.90
25628;DHT22;40915;50.826;4.356;2024-01-25T13:39:17;10.00;99.90
25628;DHT22;40915;50.826;4.356;2024-01-25T13:41:42;10.10;99.90
25628;DHT22;40915;50.826;4.356;2024-01-25T13:44:08;10.10;99.90
25628;DHT22;40915;50.826;4.356;2024-01-25T13:46:33;10.20;99.90
25628;DHT22;40915;50.826;4.356;2024-01-25T13:48:59;10.20;99.90
25628;DHT22;40915;50.826;4.356;2024-01-25T13:51:25;10.30;99.90
25628;DHT22;40915;50.826;4.356;2024-01-25T13:53:50;10.30;99.90
25628;DHT22;40915;50.826;4.356;2024-01-25T13:56:16;10.40;99.90
25628;DHT22;40915;50.826;4.356;2024-01-25T13:58:42;10.40;99.90
25628;DHT22;40915;50.826;4.356;2024-01-25T14:01:07;10.40;99.90
25628;DHT22;40915;50.826;4.356;2024-01-25T14:03:34;10.40;99.90
25628;DHT22;40915;50.826;4.356;2024-01-25T14:06:00;10.50;99.90
25628;DHT22;40915;50.826;4.356;2024-01-25T14:08:30;10.50;99.90
25628;DHT22;40915;50.826;4.356;2024-01-25T14:10:55;10.60;99.90
25628;DHT22;40915;50.826;4.356;2024-01-25T14:13:21;10.60;99.90
25628;DHT22;40915;50.826;4.356;2024-01-25T14:15:46;10.60;99.90
25628;DHT22;40915;50.826;4.356;2024-01-25T14:18:12;10.50;99.90
25628;DHT22;40915;50.826;4.356;2024-01-25T14:20:38;10.50;99.90
25628;DHT22;40915;50.826;4.356;2024-01-25T14:23:04;10.50;99.90
25628;DHT22;40915;50.826;4.356;2024-01-25T14:25:29;10.60;99.90
25628;DHT22;40915;50.826;4.356;2024-01-25T14:27:55;10.50;99.90
25628;DHT22;40915;50.826;4.356;2024-01-25T14:30:21;10.50;99.90
25628;DHT22;40915;50.826;4.356;2024-01-25T14:32:46;10.50;99.90
25628;DHT22;40915;50.826;4.356;2024-01-25T14:35:12;10.50;99.90
25628;DHT22;40915;50.826;4.356;2024-01-25T14:37:38;10.50;99.90
25628;DHT22;40915;50.826;4.356;2024-01-25T14:40:04;10.50;99.90
25628;DHT22;40915;50.826;4.356;2024-01-25T14:42:30;10.50;99.90
25628;DHT22;40915;50.826;4.356;2024-01-25T14:44:55;10.50;99.90
25628;DHT22;40915;50.826;4.356;2024-01-25T14:47:21;10.50;99.90
25628;DHT22;40915;50.826;4.356;2024-01-25T14:49:48;10.50;99.90
25628;DHT22;40915;50.826;4.356;2024-01-25T14:52:14;10.50;99.90
25628;DHT22;40915;50.826;4.356;2024-01-25T14:54:40;10.40;99.90
25628;DHT22;40915;50.826;4.356;2024-01-25T14:57:06;10.50;99.90
25628;DHT22;40915;50.826;4.356;2024-01-25T14:59:31;10.50;99.90
25628;DHT22;40915;50.826;4.356;2024-01-25T15:01:57;10.50;99.90
25628;DHT22;40915;50.826;4.356;2024-01-25T15:04:22;10.50;99.90
25628;DHT22;40915;50.826;4.356;2024-01-25T15:06:48;10.50;99.90
25628;DHT22;40915;50.826;4.356;2024-01-25T15:09:14;10.50;99.90
25628;DHT22;40915;50.826;4.356;2024-01-25T15:11:39;10.50;99.90
25628;DHT22;40915;50.826;4.356;2024-01-25T15:14:05;10.50;99.90
25628;DHT22;40915;50.826;4.356;2024-01-25T15:16:31;10.50;99.90
25628;DHT22;40915;50.826;4.356;2024-01-25T15:18:57;10.40;99.90
25628;DHT22;40915;50.826;4.356;2024-01-25T15:21:23;10.50;99.90
25628;DHT22;40915;50.826;4.356;2024-01-25T15:23:50;10.50;99.90
25628;DHT22;40915;50.826;4.356;2024-01-25T15:26:16;10.50;99.90
25628;DHT22;40915;50.826;4.356;2024-01-25T15:28:42;10.50;99.90
25628;DHT22;40915;50.826;4.356;2024-01-25T15:31:07;10.50;99.90
25628;DHT22;40915;50.826;4.356;2024-01-25T15:33:35;10.50;99.90
25628;DHT22;40915;50.826;4.356;2024-01-25T15:36:01;10.50;99.90